sensor_id;sensor_type;location;lat;lon;timestamp;pressure;altitude;pressure_sealevel;temperature;humidity
40612;BME280;26317;44.894;20.286;2023-04-19T00:02:40;100579.00;;;11.84;98.70
40612;BME280;26317;44.894;20.286;2023-04-19T00:05:20;100585.47;;;11.78;98.48
40612;BME280;26317;44.894;20.286;2023-04-19T00:07:56;100572.84;;;11.74;99.58
40612;BME280;26317;44.894;20.286;2023-04-19T00:10:34;100574.19;;;11.71;100.00
40612;BME280;26317;44.894;20.286;2023-04-19T00:13:17;100569.38;;;11.68;100.00
40612;BME280;26317;44.894;20.286;2023-04-19T00:15:56;100573.41;;;11.76;100.00
40612;BME280;26317;44.894;20.286;2023-04-19T00:18:37;100573.09;;;11.77;100.00
40612;BME280;26317;44.894;20.286;2023-04-19T00:21:14;100561.59;;;11.72;100.00
40612;BME280;26317;44.894;20.286;2023-04-19T00:23:48;100562.34;;;11.77;100.00
40612;BME280;26317;44.894;20.286;2023-04-19T00:26:22;100551.09;;;11.75;100.00
40612;BME280;26317;44.894;20.286;2023-04-19T00:29:03;100564.50;;;11.80;100.00
40612;BME280;26317;44.894;20.286;2023-04-19T00:31:40;100542.78;;;11.67;100.00
40612;BME280;26317;44.894;20.286;2023-04-19T00:34:21;100557.78;;;11.78;100.00
40612;BME280;26317;44.894;20.286;2023-04-19T00:37:01;100561.28;;;11.78;99.50
40612;BME280;26317;44.894;20.286;2023-04-19T00:39:42;100557.50;;;11.79;99.56
40612;BME280;26317;44.894;20.286;2023-04-19T00:42:21;100559.38;;;11.84;99.83
40612;BME280;26317;44.894;20.286;2023-04-19T00:45:01;100560.41;;;11.88;98.94
40612;BME280;26317;44.894;20.286;2023-04-19T00:47:41;100558.78;;;11.92;98.88
40612;BME280;26317;44.894;20.286;2023-04-19T00:50:25;100542.38;;;11.93;98.41
40612;BME280;26317;44.894;20.286;2023-04-19T00:53:03;100548.84;;;11.92;98.18
40612;BME280;26317;44.894;20.286;2023-04-19T00:55:56;100550.69;;;11.97;98.05
40612;BME280;26317;44.894;20.286;2023-04-19T00:58:34;100546.13;;;11.97;97.89
40612;BME280;26317;44.894;20.286;2023-04-19T01:01:13;100549.88;;;11.96;98.34
40612;BME280;26317;44.894;20.286;2023-04-19T01:03:50;100548.81;;;11.97;98.19
40612;BME280;26317;44.894;20.286;2023-04-19T01:06:32;100540.69;;;12.03;98.50
40612;BME280;26317;44.894;20.286;2023-04-19T01:09:08;100534.78;;;12.06;98.03
40612;BME280;26317;44.894;20.286;2023-04-19T01:11:42;100529.41;;;12.06;97.87
40612;BME280;26317;44.894;20.286;2023-04-19T01:14:21;100524.31;;;11.99;98.46
40612;BME280;26317;44.894;20.286;2023-04-19T01:16:57;100517.16;;;11.89;99.23
40612;BME280;26317;44.894;20.286;2023-04-19T01:19:33;100522.75;;;11.93;99.11
40612;BME280;26317;44.894;20.286;2023-04-19T01:22:33;100519.78;;;11.94;99.93
40612;BME280;26317;44.894;20.286;2023-04-19T01:25:10;100516.03;;;11.90;99.83
40612;BME280;26317;44.894;20.286;2023-04-19T01:27:47;100516.56;;;11.97;100.00
40612;BME280;26317;44.894;20.286;2023-04-19T01:30:21;100512.00;;;11.93;99.73
40612;BME280;26317;44.894;20.286;2023-04-19T01:32:57;100515.97;;;12.01;99.58
40612;BME280;26317;44.894;20.286;2023-04-19T01:35:33;100525.34;;;12.03;98.95
40612;BME280;26317;44.894;20.286;2023-04-19T01:38:22;100517.06;;;11.99;99.29
40612;BME280;26317;44.894;20.286;2023-04-19T01:41:01;100517.06;;;11.99;99.18
40612;BME280;26317;44.894;20.286;2023-04-19T01:43:44;100513.28;;;12.01;99.43
40612;BME280;26317;44.894;20.286;2023-04-19T01:46:22;100505.50;;;11.99;99.31
40612;BME280;26317;44.894;20.286;2023-04-19T01:49:01;100477.66;;;11.85;99.30
40612;BME280;26317;44.894;20.286;2023-04-19T01:51:41;100512.72;;;12.04;99.35
40612;BME280;26317;44.894;20.286;2023-04-19T01:54:21;100515.44;;;11.98;98.72
40612;BME280;26317;44.894;20.286;2023-04-19T01:57:11;100506.88;;;11.96;98.84
40612;BME280;26317;44.894;20.286;2023-04-19T01:59:45;100511.22;;;11.92;99.24
40612;BME280;26317;44.894;20.286;2023-04-19T02:02:20;100504.78;;;11.88;98.97
40612;BME280;26317;44.894;20.286;2023-04-19T02:04:56;100500.75;;;11.86;98.76
40612;BME280;26317;44.894;20.286;2023-04-19T02:07:43;100501.31;;;11.83;99.44
40612;BME280;26317;44.894;20.286;2023-04-19T02:10:17;100501.34;;;11.78;100.00
40612;BME280;26317;44.894;20.286;2023-04-19T02:12:56;100500.50;;;11.82;100.00
40612;BME280;26317;44.894;20.286;2023-04-19T02:15:35;100502.41;;;11.82;100.00
40612;BME280;26317;44.894;20.286;2023-04-19T02:18:12;100493.34;;;11.68;100.00
40612;BME280;26317;44.894;20.286;2023-04-19T02:20:56;100497.09;;;11.67;100.00
40612;BME280;26317;44.894;20.286;2023-04-19T02:23:32;100468.72;;;11.56;100.00
40612;BME280;26317;44.894;20.286;2023-04-19T02:26:09;100486.94;;;11.59;100.00
40612;BME280;26317;44.894;20.286;2023-04-19T02:28:54;100483.44;;;11.58;100.00
40612;BME280;26317;44.894;20.286;2023-04-19T02:31:31;100490.25;;;11.45;100.00
40612;BME280;26317;44.894;20.286;2023-04-19T02:34:10;100475.53;;;11.38;100.00
40612;BME280;26317;44.894;20.286;2023-04-19T02:36:51;100483.81;;;11.46;100.00
40612;BME280;26317;44.894;20.286;2023-04-19T02:39:29;100475.44;;;11.48;100.00
40612;BME280;26317;44.894;20.286;2023-04-19T02:42:13;100479.75;;;11.49;100.00
40612;BME280;26317;44.894;20.286;2023-04-19T02:44:50;100435.59;;;11.21;100.00
40612;BME280;26317;44.894;20.286;2023-04-19T02:47:28;100479.22;;;11.52;100.00
40612;BME280;26317;44.894;20.286;2023-04-19T02:50:00;100474.38;;;11.49;100.00
40612;BME280;26317;44.894;20.286;2023-04-19T02:52:42;100461.53;;;11.41;100.00
40612;BME280;26317;44.894;20.286;2023-04-19T02:55:25;100477.34;;;11.47;100.00
40612;BME280;26317;44.894;20.286;2023-04-19T02:58:12;100470.63;;;11.50;100.00
40612;BME280;26317;44.894;20.286;2023-04-19T03:00:57;100471.66;;;11.54;100.00
40612;BME280;26317;44.894;20.286;2023-04-19T03:03:31;100471.66;;;11.54;100.00
40612;BME280;26317;44.894;20.286;2023-04-19T03:06:05;100459.03;;;11.54;100.00
40612;BME280;26317;44.894;20.286;2023-04-19T03:08:44;100427.22;;;11.33;100.00
40612;BME280;26317;44.894;20.286;2023-04-19T03:11:27;100424.53;;;11.33;100.00
40612;BME280;26317;44.894;20.286;2023-04-19T03:14:17;100466.25;;;11.59;100.00
40612;BME280;26317;44.894;20.286;2023-04-19T03:19:43;100466.22;;;11.64;100.00
40612;BME280;26317;44.894;20.286;2023-04-19T03:22:19;100462.19;;;11.67;100.00
40612;BME280;26317;44.894;20.286;2023-04-19T03:25:15;100451.16;;;11.68;100.00
40612;BME280;26317;44.894;20.286;2023-04-19T03:28:03;100467.56;;;11.72;100.00
40612;BME280;26317;44.894;20.286;2023-04-19T03:31:08;100460.81;;;11.74;100.00
40612;BME280;26317;44.894;20.286;2023-04-19T03:33:57;100458.91;;;11.70;100.00
40612;BME280;26317;44.894;20.286;2023-04-19T03:36:43;100457.03;;;11.75;100.00
40612;BME280;26317;44.894;20.286;2023-04-19T03:39:17;100456.25;;;11.75;100.00
40612;BME280;26317;44.894;20.286;2023-04-19T03:42:08;100457.03;;;11.75;100.00
40612;BME280;26317;44.894;20.286;2023-04-19T03:44:50;100461.91;;;11.68;100.00
40612;BME280;26317;44.894;20.286;2023-04-19T03:47:28;100446.88;;;11.72;100.00
40612;BME280;26317;44.894;20.286;2023-04-19T03:50:15;100454.88;;;11.77;100.00
40612;BME280;26317;44.894;20.286;2023-04-19T03:52:51;100441.50;;;11.72;100.00
40612;BME280;26317;44.894;20.286;2023-04-19T03:55:40;100459.16;;;11.78;100.00
40612;BME280;26317;44.894;20.286;2023-04-19T03:58:17;100462.06;;;11.87;100.00
40612;BME280;26317;44.894;20.286;2023-04-19T04:01:05;100462.06;;;11.87;100.00
40612;BME280;26317;44.894;20.286;2023-04-19T04:03:42;100454.22;;;11.90;100.00
40612;BME280;26317;44.894;20.286;2023-04-19T04:06:20;100457.41;;;11.97;100.00
40612;BME280;26317;44.894;20.286;2023-04-19T04:09:02;100450.91;;;12.04;100.00
40612;BME280;26317;44.894;20.286;2023-04-19T04:11:43;100449.25;;;12.08;100.00
40612;BME280;26317;44.894;20.286;2023-04-19T04:14:20;100428.66;;;11.98;100.00
40612;BME280;26317;44.894;20.286;2023-04-19T04:16:59;100455.91;;;12.15;100.00
40612;BME280;26317;44.894;20.286;2023-04-19T04:19:41;100435.84;;;12.03;100.00
40612;BME280;26317;44.894;20.286;2023-04-19T04:22:17;100465.88;;;12.15;100.00
40612;BME280;26317;44.894;20.286;2023-04-19T04:24:53;100459.69;;;12.14;100.00
40612;BME280;26317;44.894;20.286;2023-04-19T04:27:38;100459.91;;;12.18;100.00
40612;BME280;26317;44.894;20.286;2023-04-19T04:30:18;100441.47;;;12.06;100.00
40612;BME280;26317;44.894;20.286;2023-04-19T04:33:02;100445.56;;;11.98;100.00
40612;BME280;26317;44.894;20.286;2023-04-19T04:35:46;100467.50;;;12.11;100.00
40612;BME280;26317;44.894;20.286;2023-04-19T04:38:26;100464.03;;;12.10;100.00
40612;BME280;26317;44.894;20.286;2023-04-19T04:41:00;100450.38;;;12.02;100.00
40612;BME280;26317;44.894;20.286;2023-04-19T04:43:40;100476.09;;;12.13;100.00
40612;BME280;26317;44.894;20.286;2023-04-19T04:46:44;100463.69;;;12.17;100.00
40612;BME280;26317;44.894;20.286;2023-04-19T04:49:24;100461.03;;;12.12;100.00
40612;BME280;26317;44.894;20.286;2023-04-19T04:52:17;100459.50;;;12.06;100.00
40612;BME280;26317;44.894;20.286;2023-04-19T04:55:14;100456.31;;;11.98;100.00
40612;BME280;26317;44.894;20.286;2023-04-19T04:57:50;100447.22;;;11.94;100.00
40612;BME280;26317;44.894;20.286;2023-04-19T05:00:35;100457.69;;;11.96;100.00
40612;BME280;26317;44.894;20.286;2023-04-19T05:03:17;100459.28;;;11.97;100.00
40612;BME280;26317;44.894;20.286;2023-04-19T05:05:59;100467.31;;;12.02;100.00
40612;BME280;26317;44.894;20.286;2023-04-19T05:08:51;100470.53;;;12.04;100.00
40612;BME280;26317;44.894;20.286;2023-04-19T05:11:51;100468.91;;;12.03;100.00
40612;BME280;26317;44.894;20.286;2023-04-19T05:14:27;100470.25;;;12.06;100.00
40612;BME280;26317;44.894;20.286;2023-04-19T05:17:04;100467.22;;;12.12;100.00
40612;BME280;26317;44.894;20.286;2023-04-19T05:19:50;100476.31;;;12.16;100.00
40612;BME280;26317;44.894;20.286;2023-04-19T05:22:24;100478.50;;;12.14;100.00
40612;BME280;26317;44.894;20.286;2023-04-19T05:25:02;100482.53;;;12.12;99.01
40612;BME280;26317;44.894;20.286;2023-04-19T05:27:34;100476.69;;;12.05;99.10
40612;BME280;26317;44.894;20.286;2023-04-19T05:30:14;100485.81;;;12.09;99.43
40612;BME280;26317;44.894;20.286;2023-04-19T05:32:52;100486.63;;;12.09;100.00
40612;BME280;26317;44.894;20.286;2023-04-19T05:35:29;100490.34;;;12.13;100.00
40612;BME280;26317;44.894;20.286;2023-04-19T05:38:13;100487.94;;;12.12;98.96
40612;BME280;26317;44.894;20.286;2023-04-19T05:40:52;100488.78;;;12.07;99.36
40612;BME280;26317;44.894;20.286;2023-04-19T05:43:28;100484.50;;;12.06;99.61
40612;BME280;26317;44.894;20.286;2023-04-19T05:46:03;100482.53;;;12.12;100.00
40612;BME280;26317;44.894;20.286;2023-04-19T05:48:42;100488.44;;;12.19;98.89
40612;BME280;26317;44.894;20.286;2023-04-19T05:51:30;100463.53;;;12.03;96.91
40612;BME280;26317;44.894;20.286;2023-04-19T05:54:29;100488.88;;;12.26;96.14
40612;BME280;26317;44.894;20.286;2023-04-19T05:57:10;100484.31;;;12.26;95.41
40612;BME280;26317;44.894;20.286;2023-04-19T05:59:50;100484.00;;;12.28;94.35
40612;BME280;26317;44.894;20.286;2023-04-19T06:02:40;100481.81;;;12.35;93.63
40612;BME280;26317;44.894;20.286;2023-04-19T06:05:18;100487.69;;;12.37;92.38
40612;BME280;26317;44.894;20.286;2023-04-19T06:07:57;100476.91;;;12.42;94.23
40612;BME280;26317;44.894;20.286;2023-04-19T06:10:46;100484.88;;;12.52;94.31
40612;BME280;26317;44.894;20.286;2023-04-19T06:13:41;100492.94;;;12.52;91.98
40612;BME280;26317;44.894;20.286;2023-04-19T06:16:21;100502.91;;;12.52;91.92
40612;BME280;26317;44.894;20.286;2023-04-19T06:19:00;100460.66;;;12.52;93.00
40612;BME280;26317;44.894;20.286;2023-04-19T06:21:39;100493.09;;;12.61;86.44
40612;BME280;26317;44.894;20.286;2023-04-19T06:24:15;100497.81;;;12.74;86.33
40612;BME280;26317;44.894;20.286;2023-04-19T06:26:55;100498.69;;;12.93;87.50
40612;BME280;26317;44.894;20.286;2023-04-19T06:29:35;100500.13;;;12.85;86.73
40612;BME280;26317;44.894;20.286;2023-04-19T06:32:12;100509.56;;;12.83;86.22
40612;BME280;26317;44.894;20.286;2023-04-19T06:34:50;100511.41;;;12.87;86.56
40612;BME280;26317;44.894;20.286;2023-04-19T06:37:26;100502.25;;;12.88;86.60
40612;BME280;26317;44.894;20.286;2023-04-19T06:40:04;100508.31;;;12.99;87.30
40612;BME280;26317;44.894;20.286;2023-04-19T06:42:45;100521.94;;;13.08;85.34
40612;BME280;26317;44.894;20.286;2023-04-19T06:45:25;100517.84;;;13.15;84.46
40612;BME280;26317;44.894;20.286;2023-04-19T06:48:09;100520.69;;;13.24;81.93
40612;BME280;26317;44.894;20.286;2023-04-19T06:50:41;100527.19;;;13.23;75.97
40612;BME280;26317;44.894;20.286;2023-04-19T06:53:18;100521.38;;;13.34;74.54
40612;BME280;26317;44.894;20.286;2023-04-19T06:55:56;100529.16;;;13.36;73.09
40612;BME280;26317;44.894;20.286;2023-04-19T06:58:35;100527.78;;;13.39;70.79
40612;BME280;26317;44.894;20.286;2023-04-19T07:01:16;100521.50;;;13.24;70.32
40612;BME280;26317;44.894;20.286;2023-04-19T07:03:49;100509.00;;;13.10;71.29
40612;BME280;26317;44.894;20.286;2023-04-19T07:06:25;100497.41;;;13.09;70.29
40612;BME280;26317;44.894;20.286;2023-04-19T07:09:01;100496.22;;;13.20;72.61
40612;BME280;26317;44.894;20.286;2023-04-19T07:11:45;100528.66;;;13.34;70.83
40612;BME280;26317;44.894;20.286;2023-04-19T07:14:27;100528.22;;;13.46;71.43
40612;BME280;26317;44.894;20.286;2023-04-19T07:17:07;100527.72;;;13.44;70.90
40612;BME280;26317;44.894;20.286;2023-04-19T07:19:54;100531.66;;;13.51;69.78
40612;BME280;26317;44.894;20.286;2023-04-19T07:22:32;100527.78;;;13.57;68.25
40612;BME280;26317;44.894;20.286;2023-04-19T07:25:07;100533.56;;;13.69;69.72
40612;BME280;26317;44.894;20.286;2023-04-19T07:27:51;100510.47;;;13.63;66.72
40612;BME280;26317;44.894;20.286;2023-04-19T07:30:29;100535.47;;;13.88;68.97
40612;BME280;26317;44.894;20.286;2023-04-19T07:33:18;100527.31;;;13.93;69.45
40612;BME280;26317;44.894;20.286;2023-04-19T07:35:58;100529.31;;;14.01;70.14
40612;BME280;26317;44.894;20.286;2023-04-19T07:38:36;100532.03;;;14.01;70.60
40612;BME280;26317;44.894;20.286;2023-04-19T07:41:11;100498.97;;;13.76;68.80
40612;BME280;26317;44.894;20.286;2023-04-19T07:43:46;100529.75;;;14.08;69.76
40612;BME280;26317;44.894;20.286;2023-04-19T07:46:24;100530.41;;;14.18;67.29
40612;BME280;26317;44.894;20.286;2023-04-19T07:49:06;100519.75;;;14.08;67.64
40612;BME280;26317;44.894;20.286;2023-04-19T07:51:43;100543.00;;;14.23;64.98
40612;BME280;26317;44.894;20.286;2023-04-19T07:54:19;100540.31;;;14.23;64.46
40612;BME280;26317;44.894;20.286;2023-04-19T07:56:52;100541.81;;;14.29;63.94
40612;BME280;26317;44.894;20.286;2023-04-19T07:59:27;100549.31;;;14.32;66.71
40612;BME280;26317;44.894;20.286;2023-04-19T08:02:10;100540.22;;;14.28;63.74
40612;BME280;26317;44.894;20.286;2023-04-19T08:04:49;100536.09;;;14.36;65.34
40612;BME280;26317;44.894;20.286;2023-04-19T08:07:24;100533.72;;;14.29;67.23
40612;BME280;26317;44.894;20.286;2023-04-19T08:09:57;100534.81;;;14.28;66.56
40612;BME280;26317;44.894;20.286;2023-04-19T08:12:43;100536.31;;;14.39;69.61
40612;BME280;26317;44.894;20.286;2023-04-19T08:15:47;100522.59;;;14.36;71.52
40612;BME280;26317;44.894;20.286;2023-04-19T08:18:27;100545.41;;;14.43;66.34
40612;BME280;26317;44.894;20.286;2023-04-19T08:21:06;100560.06;;;14.37;66.06
40612;BME280;26317;44.894;20.286;2023-04-19T08:23:44;100551.59;;;14.25;66.55
40612;BME280;26317;44.894;20.286;2023-04-19T08:26:20;100539.03;;;14.34;68.43
40612;BME280;26317;44.894;20.286;2023-04-19T08:28:57;100522.66;;;14.12;65.78
40612;BME280;26317;44.894;20.286;2023-04-19T08:31:47;100542.53;;;14.35;69.07
40612;BME280;26317;44.894;20.286;2023-04-19T08:34:29;100528.31;;;14.29;67.59
40612;BME280;26317;44.894;20.286;2023-04-19T08:37:07;100552.81;;;14.51;68.45
40612;BME280;26317;44.894;20.286;2023-04-19T08:39:48;100547.34;;;14.56;68.28
40612;BME280;26317;44.894;20.286;2023-04-19T08:42:24;100531.03;;;14.48;67.88
40612;BME280;26317;44.894;20.286;2023-04-19T08:45:10;100540.94;;;14.52;68.21
40612;BME280;26317;44.894;20.286;2023-04-19T08:48:03;100533.53;;;14.58;68.54
40612;BME280;26317;44.894;20.286;2023-04-19T08:50:38;100512.03;;;14.53;70.45
40612;BME280;26317;44.894;20.286;2023-04-19T08:53:37;100540.56;;;14.86;69.55
40612;BME280;26317;44.894;20.286;2023-04-19T08:56:20;100540.00;;;14.89;68.36
40612;BME280;26317;44.894;20.286;2023-04-19T08:59:05;100541.19;;;14.97;68.40
40612;BME280;26317;44.894;20.286;2023-04-19T09:01:47;100534.19;;;15.09;69.37
40612;BME280;26317;44.894;20.286;2023-04-19T09:04:21;100539.88;;;15.08;66.67
40612;BME280;26317;44.894;20.286;2023-04-19T09:07:06;100526.00;;;15.14;68.36
40612;BME280;26317;44.894;20.286;2023-04-19T09:09:50;100526.09;;;15.23;65.91
40612;BME280;26317;44.894;20.286;2023-04-19T09:12:58;100525.47;;;15.26;66.64
40612;BME280;26317;44.894;20.286;2023-04-19T09:15:45;100528.28;;;15.35;66.66
40612;BME280;26317;44.894;20.286;2023-04-19T09:18:25;100520.97;;;15.35;66.49
40612;BME280;26317;44.894;20.286;2023-04-19T09:21:29;100518.66;;;15.42;65.96
40612;BME280;26317;44.894;20.286;2023-04-19T09:24:11;100521.03;;;15.57;67.57
40612;BME280;26317;44.894;20.286;2023-04-19T09:26:54;100524.53;;;15.72;68.24
40612;BME280;26317;44.894;20.286;2023-04-19T09:29:33;100509.06;;;15.86;67.73
40612;BME280;26317;44.894;20.286;2023-04-19T09:32:13;100487.97;;;15.96;64.78
40612;BME280;26317;44.894;20.286;2023-04-19T09:34:56;100491.47;;;16.19;60.04
40612;BME280;26317;44.894;20.286;2023-04-19T09:37:30;100514.69;;;16.42;57.09
40612;BME280;26317;44.894;20.286;2023-04-19T09:40:25;100514.88;;;16.46;56.29
40612;BME280;26317;44.894;20.286;2023-04-19T09:43:00;100521.88;;;16.47;56.02
40612;BME280;26317;44.894;20.286;2023-04-19T09:45:58;100531.06;;;16.37;54.27
40612;BME280;26317;44.894;20.286;2023-04-19T09:48:36;100517.28;;;16.47;55.75
40612;BME280;26317;44.894;20.286;2023-04-19T09:51:11;100523.84;;;16.55;57.22
40612;BME280;26317;44.894;20.286;2023-04-19T09:53:55;100529.97;;;16.61;54.49
40612;BME280;26317;44.894;20.286;2023-04-19T09:56:36;100521.59;;;16.48;51.61
40612;BME280;26317;44.894;20.286;2023-04-19T09:59:14;100519.34;;;16.50;51.07
40612;BME280;26317;44.894;20.286;2023-04-19T10:01:53;100521.16;;;16.86;52.06
40612;BME280;26317;44.894;20.286;2023-04-19T10:04:28;100509.81;;;16.84;50.09
40612;BME280;26317;44.894;20.286;2023-04-19T10:07:24;100500.38;;;16.73;51.57
40612;BME280;26317;44.894;20.286;2023-04-19T10:10:02;100508.13;;;16.66;53.90
40612;BME280;26317;44.894;20.286;2023-04-19T10:12:53;100499.47;;;16.55;50.53
40612;BME280;26317;44.894;20.286;2023-04-19T10:15:50;100499.69;;;16.36;49.11
40612;BME280;26317;44.894;20.286;2023-04-19T10:18:38;100481.50;;;16.06;49.55
40612;BME280;26317;44.894;20.286;2023-04-19T10:21:11;100501.63;;;16.14;50.16
40612;BME280;26317;44.894;20.286;2023-04-19T10:23:42;100490.44;;;16.06;51.10
40612;BME280;26317;44.894;20.286;2023-04-19T10:26:22;100497.94;;;16.09;51.65
40612;BME280;26317;44.894;20.286;2023-04-19T10:29:01;100495.16;;;16.01;51.20
40612;BME280;26317;44.894;20.286;2023-04-19T10:31:42;100501.25;;;16.06;52.85
40612;BME280;26317;44.894;20.286;2023-04-19T10:34:36;100496.13;;;15.83;43.88
40612;BME280;26317;44.894;20.286;2023-04-19T10:37:15;100476.53;;;15.77;45.68
40612;BME280;26317;44.894;20.286;2023-04-19T10:39:53;100489.81;;;15.87;53.02
40612;BME280;26317;44.894;20.286;2023-04-19T10:45:39;100477.81;;;15.80;62.79
40612;BME280;26317;44.894;20.286;2023-04-19T10:48:37;100477.25;;;15.69;63.67
40612;BME280;26317;44.894;20.286;2023-04-19T10:51:13;100479.19;;;15.41;65.12
40612;BME280;26317;44.894;20.286;2023-04-19T10:53:55;100482.16;;;15.17;58.32
40612;BME280;26317;44.894;20.286;2023-04-19T10:56:58;100487.66;;;15.26;54.47
40612;BME280;26317;44.894;20.286;2023-04-19T10:59:44;100458.63;;;15.18;52.28
40612;BME280;26317;44.894;20.286;2023-04-19T11:02:40;100473.78;;;15.41;52.20
40612;BME280;26317;44.894;20.286;2023-04-19T11:05:28;100451.69;;;15.39;49.68
40612;BME280;26317;44.894;20.286;2023-04-19T11:08:02;100474.69;;;15.37;48.50
40612;BME280;26317;44.894;20.286;2023-04-19T11:10:37;100476.50;;;15.41;49.44
40612;BME280;26317;44.894;20.286;2023-04-19T11:13:17;100471.91;;;15.28;53.41
40612;BME280;26317;44.894;20.286;2023-04-19T11:16:08;100473.41;;;15.34;55.45
40612;BME280;26317;44.894;20.286;2023-04-19T11:18:44;100476.69;;;15.58;56.72
40612;BME280;26317;44.894;20.286;2023-04-19T11:21:29;100473.00;;;15.54;53.83
40612;BME280;26317;44.894;20.286;2023-04-19T11:24:10;100477.00;;;15.57;51.92
40612;BME280;26317;44.894;20.286;2023-04-19T11:26:50;100461.63;;;15.66;51.04
40612;BME280;26317;44.894;20.286;2023-04-19T11:29:29;100476.13;;;15.70;50.28
40612;BME280;26317;44.894;20.286;2023-04-19T11:32:14;100468.66;;;15.67;49.57
40612;BME280;26317;44.894;20.286;2023-04-19T11:34:57;100465.91;;;15.81;49.75
40612;BME280;26317;44.894;20.286;2023-04-19T11:37:52;100461.53;;;15.93;49.71
40612;BME280;26317;44.894;20.286;2023-04-19T11:40:33;100465.50;;;16.18;49.32
40612;BME280;26317;44.894;20.286;2023-04-19T11:43:16;100457.16;;;16.37;48.97
40612;BME280;26317;44.894;20.286;2023-04-19T11:46:05;100468.66;;;16.65;49.22
40612;BME280;26317;44.894;20.286;2023-04-19T11:48:53;100473.78;;;16.75;46.41
40612;BME280;26317;44.894;20.286;2023-04-19T11:51:41;100467.44;;;16.88;45.11
40612;BME280;26317;44.894;20.286;2023-04-19T11:54:17;100440.38;;;16.96;46.74
40612;BME280;26317;44.894;20.286;2023-04-19T11:57:27;100462.34;;;16.78;45.47
40612;BME280;26317;44.894;20.286;2023-04-19T12:00:07;100467.88;;;16.73;46.31
40612;BME280;26317;44.894;20.286;2023-04-19T12:02:42;100470.22;;;16.57;49.24
40612;BME280;26317;44.894;20.286;2023-04-19T12:05:16;100468.22;;;16.18;49.72
40612;BME280;26317;44.894;20.286;2023-04-19T12:08:06;100471.16;;;16.08;51.35
40612;BME280;26317;44.894;20.286;2023-04-19T12:10:54;100466.69;;;15.81;51.27
40612;BME280;26317;44.894;20.286;2023-04-19T12:13:28;100461.22;;;15.73;51.78
40612;BME280;26317;44.894;20.286;2023-04-19T12:16:14;100451.88;;;15.56;52.00
40612;BME280;26317;44.894;20.286;2023-04-19T12:19:12;100451.00;;;15.34;51.76
40612;BME280;26317;44.894;20.286;2023-04-19T12:22:03;100429.81;;;15.27;52.73
40612;BME280;26317;44.894;20.286;2023-04-19T12:24:49;100453.06;;;15.50;53.70
40612;BME280;26317;44.894;20.286;2023-04-19T12:27:32;100453.44;;;15.57;54.61
40612;BME280;26317;44.894;20.286;2023-04-19T12:30:20;100448.47;;;15.51;56.68
40612;BME280;26317;44.894;20.286;2023-04-19T12:33:03;100443.34;;;15.49;57.93
40612;BME280;26317;44.894;20.286;2023-04-19T12:35:46;100440.25;;;15.42;57.13
40612;BME280;26317;44.894;20.286;2023-04-19T12:38:22;100444.47;;;15.48;58.38
40612;BME280;26317;44.894;20.286;2023-04-19T12:40:56;100442.84;;;15.47;58.75
40612;BME280;26317;44.894;20.286;2023-04-19T12:43:38;100437.22;;;15.57;59.16
40612;BME280;26317;44.894;20.286;2023-04-19T12:48:58;100431.09;;;15.65;56.94
40612;BME280;26317;44.894;20.286;2023-04-19T12:51:33;100428.19;;;15.62;56.24
40612;BME280;26317;44.894;20.286;2023-04-19T12:54:09;100428.78;;;15.73;56.49
40612;BME280;26317;44.894;20.286;2023-04-19T12:56:46;100434.53;;;15.80;57.53
40612;BME280;26317;44.894;20.286;2023-04-19T12:59:33;100425.50;;;15.84;56.42
40612;BME280;26317;44.894;20.286;2023-04-19T13:02:12;100417.00;;;15.99;55.70
40612;BME280;26317;44.894;20.286;2023-04-19T13:04:49;100423.63;;;16.16;55.26
40612;BME280;26317;44.894;20.286;2023-04-19T13:07:37;100422.03;;;16.15;56.33
40612;BME280;26317;44.894;20.286;2023-04-19T13:10:12;100399.53;;;16.05;56.35
40612;BME280;26317;44.894;20.286;2023-04-19T13:12:42;100416.03;;;16.26;56.32
40612;BME280;26317;44.894;20.286;2023-04-19T13:15:24;100421.47;;;16.26;56.23
40612;BME280;26317;44.894;20.286;2023-04-19T13:18:01;100407.91;;;16.26;56.76
40612;BME280;26317;44.894;20.286;2023-04-19T13:20:44;100418.97;;;16.38;56.85
40612;BME280;26317;44.894;20.286;2023-04-19T13:23:18;100419.94;;;16.42;57.32
40612;BME280;26317;44.894;20.286;2023-04-19T13:26:02;100416.47;;;16.50;58.82
40612;BME280;26317;44.894;20.286;2023-04-19T13:28:39;100423.94;;;16.53;56.67
40612;BME280;26317;44.894;20.286;2023-04-19T13:31:26;100417.72;;;16.44;55.47
40612;BME280;26317;44.894;20.286;2023-04-19T13:34:12;100415.91;;;16.31;54.70
40612;BME280;26317;44.894;20.286;2023-04-19T13:36:59;100425.09;;;16.22;53.22
40612;BME280;26317;44.894;20.286;2023-04-19T13:39:34;100414.09;;;16.18;53.23
40612;BME280;26317;44.894;20.286;2023-04-19T13:42:09;100417.03;;;16.30;56.11
40612;BME280;26317;44.894;20.286;2023-04-19T13:44:49;100414.00;;;16.32;59.48
40612;BME280;26317;44.894;20.286;2023-04-19T13:47:30;100426.88;;;16.26;60.63
40612;BME280;26317;44.894;20.286;2023-04-19T13:50:09;100405.34;;;16.21;60.81
40612;BME280;26317;44.894;20.286;2023-04-19T13:52:50;100414.94;;;16.27;61.19
40612;BME280;26317;44.894;20.286;2023-04-19T13:55:23;100408.59;;;16.32;62.17
40612;BME280;26317;44.894;20.286;2023-04-19T13:58:04;100406.66;;;16.32;62.27
40612;BME280;26317;44.894;20.286;2023-04-19T14:00:38;100408.25;;;16.33;62.76